createdAt,value
2018-12-07T00:01:28.276Z,100255.69
2018-12-07T00:03:55.703Z,100253.68
2018-12-07T00:06:23.135Z,100254.56
2018-12-07T00:08:50.556Z,100254.70
2018-12-07T00:11:17.984Z,100246.12
2018-12-07T00:13:45.412Z,100236.22
2018-12-07T00:16:12.844Z,100234.36
2018-12-07T00:18:40.285Z,100229.46
2018-12-07T00:21:07.709Z,100229.06
2018-12-07T00:23:35.131Z,100228.32
2018-12-07T00:26:02.560Z,100221.85
2018-12-07T00:28:29.988Z,100233.63
2018-12-07T00:30:57.414Z,100223.45
2018-12-07T00:33:24.842Z,100211.98
2018-12-07T00:35:52.258Z,100203.44
2018-12-07T00:38:19.691Z,100202.08
2018-12-07T00:40:47.111Z,100192.04
2018-12-07T00:43:14.554Z,100198.41
2018-12-07T00:45:41.983Z,100189.61
2018-12-07T00:48:09.420Z,100194.08
2018-12-07T00:50:36.852Z,100190.41
2018-12-07T00:53:04.283Z,100188.46
2018-12-07T00:55:31.714Z,100197.84
2018-12-07T00:57:59.212Z,100199.39
2018-12-07T01:00:26.688Z,100200.98
2018-12-07T01:02:54.122Z,100199.03
2018-12-07T01:05:21.561Z,100203.02
2018-12-07T01:07:48.987Z,100208.02
2018-12-07T01:10:16.412Z,100204.16
2018-12-07T01:12:43.845Z,100212.61
2018-12-07T01:15:11.260Z,100208.75
2018-12-07T01:17:38.697Z,100218.41
2018-12-07T01:20:06.150Z,100212.83
2018-12-07T01:22:33.607Z,100216.42
2018-12-07T01:25:01.041Z,100211.19
2018-12-07T01:27:28.467Z,100211.72
2018-12-07T01:29:55.896Z,100213.05
2018-12-07T01:32:23.403Z,100205.05
2018-12-07T01:34:50.872Z,100203.10
2018-12-07T01:37:18.307Z,100212.34
2018-12-07T01:39:45.736Z,100204.43
2018-12-07T01:42:13.176Z,100197.17
2018-12-07T01:44:40.607Z,100184.73
2018-12-07T01:47:08.048Z,100183.62
2018-12-07T01:49:35.473Z,100175.30
2018-12-07T01:52:02.933Z,100167.49
2018-12-07T01:54:30.360Z,100166.39
2018-12-07T01:56:57.784Z,100157.14
2018-12-07T01:59:25.222Z,100146.34
2018-12-07T02:01:52.715Z,100143.88
2018-12-07T02:04:20.291Z,100143.16
2018-12-07T02:06:47.706Z,100149.63
2018-12-07T02:09:15.148Z,100152.68
2018-12-07T02:11:42.565Z,100145.45
2018-12-07T02:14:10.000Z,100148.28
2018-12-07T02:16:37.455Z,100132.14
2018-12-07T02:19:04.933Z,100129.45
2018-12-07T02:21:32.441Z,100129.63
2018-12-07T02:23:59.863Z,100136.13
2018-12-07T02:26:27.284Z,100128.02
2018-12-07T02:28:54.703Z,100124.90
2018-12-07T02:31:22.143Z,100111.13
2018-12-07T02:33:49.575Z,100117.28
2018-12-07T02:36:16.997Z,100110.17
2018-12-07T02:38:44.424Z,100104.84
2018-12-07T02:41:11.851Z,100105.19
2018-12-07T02:43:39.357Z,100093.21
2018-12-07T02:46:06.796Z,100101.05
2018-12-07T02:48:34.219Z,100094.63
2018-12-07T02:51:01.650Z,100093.34
2018-12-07T02:53:29.146Z,100084.63
2018-12-07T02:55:56.572Z,100090.19
2018-12-07T02:58:24.019Z,100082.88
2018-12-07T03:00:51.464Z,100065.11
2018-12-07T03:03:18.970Z,100070.45
2018-12-07T03:05:46.403Z,100062.89
2018-12-07T03:08:13.931Z,100060.52
2018-12-07T03:10:41.408Z,100076.28
2018-12-07T03:13:08.840Z,100058.63
2018-12-07T03:15:36.270Z,100052.41
2018-12-07T03:18:03.712Z,100046.75
2018-12-07T03:20:31.141Z,100050.65
2018-12-07T03:22:58.576Z,100048.81
2018-12-07T03:25:26.000Z,100048.56
2018-12-07T03:27:53.437Z,100046.48
2018-12-07T03:30:21.006Z,100047.73
2018-12-07T03:32:48.492Z,100043.55
2018-12-07T03:35:15.928Z,100040.91
2018-12-07T03:37:43.352Z,100043.79
2018-12-07T03:40:10.808Z,100024.20
2018-12-07T03:42:38.279Z,100024.00
2018-12-07T03:45:05.715Z,100017.38
2018-12-07T03:47:33.151Z,100014.53
2018-12-07T03:50:00.586Z,100014.93
2018-12-07T03:52:28.005Z,100011.64
2018-12-07T03:54:55.555Z,100006.34
2018-12-07T03:57:22.949Z,100010.87
2018-12-07T03:59:50.460Z,100002.56
2018-12-07T04:02:18.064Z,100005.92
2018-12-07T04:04:45.496Z,99996.78
2018-12-07T04:07:12.907Z,99995.55
2018-12-07T04:09:40.334Z,99994.78
2018-12-07T04:12:07.755Z,100001.28
2018-12-07T04:14:35.192Z,99995.19
2018-12-07T04:17:02.622Z,99988.55
2018-12-07T04:19:30.066Z,99987.86
2018-12-07T04:21:57.484Z,99986.25
2018-12-07T04:24:24.952Z,99982.02
2018-12-07T04:26:52.396Z,99982.55
2018-12-07T04:29:19.838Z,99973.94
2018-12-07T04:31:47.328Z,99979.63
2018-12-07T04:34:14.739Z,99976.70
2018-12-07T04:36:42.171Z,99982.94
2018-12-07T04:39:09.584Z,99978.86
2018-12-07T04:41:37.012Z,99971.55
2018-12-07T04:44:04.427Z,99977.77
2018-12-07T04:46:31.844Z,99958.30
2018-12-07T04:48:59.269Z,99968.18
2018-12-07T04:51:26.691Z,99967.81
2018-12-07T04:53:54.121Z,99956.33
2018-12-07T04:56:21.546Z,99953.87
2018-12-07T04:58:49.043Z,99947.98
2018-12-07T05:01:16.501Z,99953.39
2018-12-07T05:03:43.984Z,99949.61
2018-12-07T05:06:11.400Z,99949.86
2018-12-07T05:08:38.828Z,99950.19
2018-12-07T05:11:06.250Z,99944.17
2018-12-07T05:13:33.769Z,99944.69
2018-12-07T05:16:01.207Z,99932.90
2018-12-07T05:18:28.671Z,99925.66
2018-12-07T05:20:56.132Z,99920.34
2018-12-07T05:23:23.544Z,99915.27
2018-12-07T05:25:51.046Z,99918.76
2018-12-07T05:28:18.468Z,99924.37
2018-12-07T05:30:45.891Z,99921.61
2018-12-07T05:33:13.321Z,99917.72
2018-12-07T05:35:40.743Z,99917.61
2018-12-07T05:38:08.205Z,99918.38
2018-12-07T05:40:35.635Z,99916.09
2018-12-07T05:43:03.052Z,99916.90
2018-12-07T05:45:30.479Z,99911.51
2018-12-07T05:47:57.892Z,99906.61
2018-12-07T05:50:25.327Z,99908.07
2018-12-07T05:52:52.784Z,99914.91
2018-12-07T05:55:20.214Z,99911.97
2018-12-07T05:57:47.644Z,99911.84
2018-12-07T06:00:15.067Z,99918.41
2018-12-07T06:02:42.484Z,99915.57
2018-12-07T06:05:09.983Z,99908.33
2018-12-07T06:07:37.487Z,99908.39
2018-12-07T06:10:04.906Z,99906.83
2018-12-07T06:12:32.400Z,99907.85
2018-12-07T06:14:59.840Z,99911.00
2018-12-07T06:17:27.308Z,99904.70
2018-12-07T06:19:54.778Z,99905.52
2018-12-07T06:22:22.191Z,99905.38
2018-12-07T06:24:49.683Z,99904.91
2018-12-07T06:27:17.564Z,99912.33
2018-12-07T06:29:45.030Z,99908.30
2018-12-07T06:32:12.595Z,99911.04
2018-12-07T06:34:40.029Z,99913.58
2018-12-07T06:37:07.443Z,99915.44
2018-12-07T06:39:34.884Z,99905.17
2018-12-07T06:42:02.401Z,99902.80
2018-12-07T06:44:29.864Z,99908.22
2018-12-07T06:46:57.314Z,99899.70
2018-12-07T06:49:24.742Z,99909.11
2018-12-07T06:51:52.335Z,99900.84
2018-12-07T06:54:19.807Z,99896.00
2018-12-07T06:56:48.088Z,99899.39
2018-12-07T06:59:15.507Z,99897.16
2018-12-07T07:01:42.986Z,99890.89
2018-12-07T07:04:10.548Z,99883.78
2018-12-07T07:06:37.976Z,99879.86
2018-12-07T07:09:05.447Z,99880.06
2018-12-07T07:11:32.927Z,99883.99
2018-12-07T07:14:00.432Z,99877.25
2018-12-07T07:16:27.932Z,99876.77
2018-12-07T07:18:55.359Z,99874.84
2018-12-07T07:21:22.870Z,99874.20
2018-12-07T07:23:50.290Z,99878.56
2018-12-07T07:26:17.719Z,99873.53
2018-12-07T07:28:45.995Z,99868.42
2018-12-07T07:31:13.424Z,99868.95
2018-12-07T07:33:41.131Z,99873.94
2018-12-07T07:36:08.624Z,99873.13
2018-12-07T07:38:36.071Z,99870.95
2018-12-07T07:41:03.507Z,99855.99
2018-12-07T07:43:30.931Z,99861.98
2018-12-07T07:45:58.356Z,99859.99
2018-12-07T07:48:25.803Z,99865.81
2018-12-07T07:50:53.228Z,99857.22
2018-12-07T07:53:20.728Z,99846.53
2018-12-07T07:55:48.158Z,99856.70
2018-12-07T07:58:15.631Z,99857.88
2018-12-07T08:00:43.096Z,99847.39
2018-12-07T08:03:10.525Z,99844.82
2018-12-07T08:05:38.009Z,99845.27
2018-12-07T08:08:05.491Z,99842.59
2018-12-07T08:10:32.924Z,99845.88
2018-12-07T08:13:00.377Z,99837.77
2018-12-07T08:15:27.803Z,99839.63
2018-12-07T08:17:55.234Z,99833.84
2018-12-07T08:20:22.657Z,99842.85
2018-12-07T08:22:50.091Z,99832.07
2018-12-07T08:25:17.568Z,99830.22
2018-12-07T08:27:44.988Z,99838.09
2018-12-07T08:30:12.467Z,99828.52
2018-12-07T08:32:39.895Z,99829.53
2018-12-07T08:35:07.367Z,99828.69
2018-12-07T08:37:34.786Z,99824.50
2018-12-07T08:40:02.219Z,99821.86
2018-12-07T08:42:29.653Z,99824.44
2018-12-07T08:44:57.084Z,99827.95
2018-12-07T08:47:24.575Z,99814.88
2018-12-07T08:49:57.342Z,99820.99
2018-12-07T08:52:24.860Z,99818.27
2018-12-07T08:54:52.281Z,99815.28
2018-12-07T08:57:19.704Z,99815.50
2018-12-07T08:59:47.195Z,99811.39
2018-12-07T09:02:14.656Z,99811.73
2018-12-07T09:04:42.146Z,99805.96
2018-12-07T09:07:09.667Z,99801.84
2018-12-07T09:09:37.086Z,99799.02
2018-12-07T09:12:05.500Z,99798.70
2018-12-07T09:14:33.643Z,99795.01
2018-12-07T09:17:01.136Z,99797.08
2018-12-07T09:19:28.597Z,99793.09
2018-12-07T09:21:56.027Z,99788.50
2018-12-07T09:24:24.244Z,99783.27
2018-12-07T09:26:51.680Z,99778.27
2018-12-07T09:29:19.144Z,99780.94
2018-12-07T09:31:46.603Z,99779.33
2018-12-07T09:34:14.155Z,99771.82
2018-12-07T09:36:41.636Z,99771.82
2018-12-07T09:39:09.060Z,99764.01
2018-12-07T09:41:36.479Z,99759.59
2018-12-07T09:44:03.989Z,99759.97
2018-12-07T09:46:31.444Z,99757.23
2018-12-07T09:48:58.899Z,99755.55
2018-12-07T09:51:26.332Z,99739.48
2018-12-07T09:53:54.681Z,99742.77
2018-12-07T09:56:22.115Z,99735.75
2018-12-07T09:58:50.152Z,99732.05
2018-12-07T10:01:18.998Z,99724.00
2018-12-07T10:03:46.588Z,99720.88
2018-12-07T10:06:14.076Z,99714.82
2018-12-07T10:08:41.507Z,99715.64
2018-12-07T10:11:09.004Z,99711.42
2018-12-07T10:13:36.425Z,99715.09
2018-12-07T10:16:03.907Z,99709.20
2018-12-07T10:18:32.189Z,99704.45
2018-12-07T10:20:59.663Z,99699.45
2018-12-07T10:23:27.090Z,99697.89
2018-12-07T10:25:54.523Z,99691.05
2018-12-07T10:28:21.980Z,99685.92
2018-12-07T10:30:49.396Z,99687.20
2018-12-07T10:33:16.936Z,99674.09
2018-12-07T10:35:45.087Z,99675.18
2018-12-07T10:38:12.575Z,99664.17
2018-12-07T10:40:40.001Z,99662.58
2018-12-07T10:43:07.481Z,99655.20
2018-12-07T10:45:34.931Z,99649.89
2018-12-07T10:48:02.363Z,99636.55
2018-12-07T10:50:29.928Z,99632.73
2018-12-07T10:52:57.356Z,99626.98
2018-12-07T10:55:24.784Z,99625.83
2018-12-07T10:57:52.211Z,99621.95
2018-12-07T11:00:25.028Z,99613.45
2018-12-07T11:02:57.839Z,99614.94
2018-12-07T11:05:30.651Z,99610.12
2018-12-07T11:09:01.216Z,99598.25
2018-12-07T11:11:34.052Z,99596.16
2018-12-07T11:14:06.836Z,99582.78
2018-12-07T11:16:39.599Z,99581.77
2018-12-07T11:19:12.393Z,99576.67
2018-12-07T11:21:45.082Z,99573.39
2018-12-07T11:24:17.937Z,99563.97
2018-12-07T11:26:50.837Z,99563.92
2018-12-07T11:30:27.232Z,99559.77
2018-12-07T11:32:59.937Z,99556.29
2018-12-07T11:35:30.841Z,99551.31
2018-12-07T11:37:58.303Z,99553.06
2018-12-07T11:40:25.786Z,99544.41
2018-12-07T11:42:53.261Z,99531.03
2018-12-07T11:45:20.695Z,99534.97
2018-12-07T11:47:48.112Z,99528.91
2018-12-07T11:50:15.632Z,99523.66
2018-12-07T11:52:43.083Z,99528.45
2018-12-07T11:55:10.576Z,99526.94
2018-12-07T11:57:37.999Z,99523.18
2018-12-07T12:00:05.467Z,99513.58
2018-12-07T12:02:32.909Z,99510.94
2018-12-07T12:05:01.108Z,99509.81
2018-12-07T12:07:28.539Z,99512.81
2018-12-07T12:09:56.015Z,99503.27
2018-12-07T12:12:23.448Z,99502.85
2018-12-07T12:14:50.868Z,99495.22
2018-12-07T12:17:18.293Z,99494.86
2018-12-07T12:19:45.724Z,99489.41
2018-12-07T12:22:13.155Z,99485.22
2018-12-07T12:24:40.598Z,99481.70
2018-12-07T12:27:08.111Z,99482.11
2018-12-07T12:29:35.531Z,99480.06
2018-12-07T12:32:03.057Z,99477.28
2018-12-07T12:34:31.204Z,99469.67
2018-12-07T12:36:59.399Z,99471.38
2018-12-07T12:39:26.824Z,99464.30
2018-12-07T12:41:54.498Z,99461.73
2018-12-07T12:44:21.933Z,99454.16
2018-12-07T12:46:49.360Z,99453.23
2018-12-07T12:49:16.786Z,99450.64
2018-12-07T12:51:44.212Z,99446.55
2018-12-07T12:54:11.648Z,99433.84
2018-12-07T12:56:39.071Z,99442.52
2018-12-07T12:59:06.547Z,99434.60
2018-12-07T13:01:33.969Z,99430.16
2018-12-07T13:04:01.399Z,99426.69
2018-12-07T13:06:29.306Z,99420.25
2018-12-07T13:08:56.831Z,99418.67
2018-12-07T13:11:24.596Z,99414.27
2018-12-07T13:13:52.055Z,99408.14
2018-12-07T13:16:19.480Z,99407.37
2018-12-07T13:18:46.968Z,99403.73
2018-12-07T13:21:14.393Z,99402.75
2018-12-07T13:23:41.994Z,99390.63
2018-12-07T13:26:09.406Z,99383.75
2018-12-07T13:28:36.908Z,99385.58
2018-12-07T13:31:04.431Z,99380.72
2018-12-07T13:33:31.924Z,99376.90
2018-12-07T13:35:59.360Z,99378.25
2018-12-07T13:38:26.783Z,99370.16
2018-12-07T13:40:54.297Z,99363.91
2018-12-07T13:43:21.814Z,99359.58
2018-12-07T13:45:49.368Z,99352.61
2018-12-07T13:48:16.863Z,99356.08
2018-12-07T13:50:44.393Z,99354.48
2018-12-07T13:53:12.031Z,99354.02
2018-12-07T13:55:39.619Z,99352.08
2018-12-07T13:58:07.289Z,99351.56
2018-12-07T14:00:34.823Z,99349.90
2018-12-07T14:03:02.253Z,99341.98
2018-12-07T14:05:32.422Z,99348.01
2018-12-07T14:07:59.095Z,99339.19
2018-12-07T14:10:26.571Z,99338.92
2018-12-07T14:12:54.060Z,99328.22
2018-12-07T14:15:21.793Z,99323.99
2018-12-07T14:17:49.602Z,99320.17
2018-12-07T14:20:17.229Z,99313.69
2018-12-07T14:22:44.636Z,99307.22
2018-12-07T14:25:12.242Z,99299.09
2018-12-07T14:27:39.826Z,99294.17
2018-12-07T14:30:07.372Z,99283.50
2018-12-07T14:32:34.877Z,99281.48
2018-12-07T14:35:02.624Z,99277.94
2018-12-07T14:37:30.298Z,99258.73
2018-12-07T14:39:57.774Z,99255.24
2018-12-07T14:42:25.384Z,99242.30
2018-12-07T14:44:52.933Z,99234.16
2018-12-07T14:47:20.435Z,99232.77
2018-12-07T14:49:48.157Z,99235.72
2018-12-07T14:52:15.776Z,99241.38
2018-12-07T14:54:43.403Z,99237.74
2018-12-07T14:57:11.110Z,99235.12
2018-12-07T14:59:38.746Z,99225.40
2018-12-07T15:02:06.285Z,99216.11
2018-12-07T15:04:33.763Z,99205.38
2018-12-07T15:07:01.315Z,99199.84
2018-12-07T15:09:28.907Z,99196.30
2018-12-07T15:11:56.526Z,99187.00
2018-12-07T15:14:23.987Z,99186.13
2018-12-07T15:16:51.490Z,99182.76
2018-12-07T15:19:19.052Z,99177.89
2018-12-07T15:21:46.539Z,99172.36
2018-12-07T15:24:13.997Z,99161.17
2018-12-07T15:26:41.516Z,99155.09
2018-12-07T15:29:09.042Z,99148.97
2018-12-07T15:31:36.549Z,99154.41
2018-12-07T15:34:04.115Z,99157.36
2018-12-07T15:36:31.574Z,99145.76
2018-12-07T15:38:59.031Z,99140.31
2018-12-07T15:41:26.696Z,99138.66
2018-12-07T15:43:54.315Z,99141.56
2018-12-07T15:46:21.865Z,99133.23
2018-12-07T15:48:50.204Z,99137.93
2018-12-07T15:51:17.694Z,99130.66
2018-12-07T15:53:45.286Z,99120.11
2018-12-07T15:56:12.793Z,99113.30
2018-12-07T15:58:40.233Z,99117.63
2018-12-07T16:01:07.813Z,99114.58
2018-12-07T16:03:35.292Z,99118.86
2018-12-07T16:06:02.877Z,99111.37
2018-12-07T16:08:30.576Z,99108.18
2018-12-07T16:10:58.102Z,99104.36
2018-12-07T16:13:25.821Z,99097.45
2018-12-07T16:15:53.746Z,99087.34
2018-12-07T16:18:21.263Z,99076.73
2018-12-07T16:20:49.065Z,99065.70
2018-12-07T16:23:16.596Z,99058.15
2018-12-07T16:25:44.139Z,99046.16
2018-12-07T16:28:11.961Z,99046.47
2018-12-07T16:30:39.698Z,99041.11
2018-12-07T16:33:07.337Z,99042.59
2018-12-07T16:35:35.012Z,99032.95
2018-12-07T16:38:02.538Z,99027.73
2018-12-07T16:40:30.209Z,99024.71
2018-12-07T16:42:57.885Z,99014.37
2018-12-07T16:45:25.670Z,99004.50
2018-12-07T16:47:53.515Z,99001.59
2018-12-07T16:50:21.189Z,99003.19
2018-12-07T16:52:48.788Z,98997.20
2018-12-07T16:55:16.345Z,98996.16
2018-12-07T16:57:43.960Z,98985.68
2018-12-07T17:00:11.458Z,98980.33
2018-12-07T17:02:39.149Z,98977.34
2018-12-07T17:05:06.657Z,98972.59
2018-12-07T17:07:34.205Z,98975.70
2018-12-07T17:10:02.101Z,98974.44
2018-12-07T17:12:29.772Z,98966.27
2018-12-07T17:14:57.419Z,98965.36
2018-12-07T17:17:25.177Z,98958.05
2018-12-07T17:19:52.687Z,98954.08
2018-12-07T17:22:20.164Z,98961.52
2018-12-07T17:24:47.674Z,98953.69
2018-12-07T17:27:15.166Z,98953.34
2018-12-07T17:29:42.785Z,98951.94
2018-12-07T17:32:10.238Z,98942.80
2018-12-07T17:34:37.744Z,98942.78
2018-12-07T17:37:05.218Z,98933.72
2018-12-07T17:39:32.734Z,98934.63
2018-12-07T17:42:00.284Z,98928.17
2018-12-07T17:44:27.800Z,98928.59
2018-12-07T17:46:55.484Z,98923.89
2018-12-07T17:49:22.988Z,98922.04
2018-12-07T17:51:50.491Z,98922.09
2018-12-07T17:54:18.022Z,98934.11
2018-12-07T17:56:45.799Z,98936.87
2018-12-07T17:59:13.376Z,98930.34
2018-12-07T18:01:40.869Z,98927.75
2018-12-07T18:04:08.339Z,98932.58
2018-12-07T18:06:35.995Z,98930.39
2018-12-07T18:09:03.715Z,98937.23
2018-12-07T18:11:31.366Z,98931.86
2018-12-07T18:13:58.916Z,98920.68
2018-12-07T18:16:26.545Z,98915.73
2018-12-07T18:18:54.278Z,98905.14
2018-12-07T18:21:21.890Z,98904.36
2018-12-07T18:23:50.419Z,98892.80
2018-12-07T18:26:18.335Z,98887.45
2018-12-07T18:28:45.946Z,98890.93
2018-12-07T18:31:13.439Z,98897.78
2018-12-07T18:33:40.998Z,98898.45
2018-12-07T18:36:08.518Z,98896.32
2018-12-07T18:38:35.973Z,98905.13
2018-12-07T18:41:03.580Z,98909.13
2018-12-07T18:43:31.741Z,98917.82
2018-12-07T18:45:59.306Z,98905.36
2018-12-07T18:48:26.866Z,98907.34
2018-12-07T18:50:54.565Z,98907.05
2018-12-07T18:53:22.194Z,98919.11
2018-12-07T18:55:50.045Z,98913.42
2018-12-07T18:58:18.665Z,98912.14
2018-12-07T19:00:46.524Z,98910.31
2018-12-07T19:03:14.066Z,98897.85
2018-12-07T19:05:41.574Z,98883.78
2018-12-07T19:08:09.942Z,98881.63
2018-12-07T19:10:37.627Z,98880.10
2018-12-07T19:13:05.247Z,98879.07
2018-12-07T19:15:32.658Z,98877.61
2018-12-07T19:18:00.077Z,98877.16
2018-12-07T19:20:27.766Z,98871.94
2018-12-07T19:22:55.348Z,98860.80
2018-12-07T19:25:22.829Z,98866.66
2018-12-07T19:27:50.392Z,98871.27
2018-12-07T19:30:17.977Z,98861.31
2018-12-07T19:32:45.740Z,98863.44
2018-12-07T19:35:13.339Z,98854.06
2018-12-07T19:37:40.982Z,98843.30
2018-12-07T19:40:08.667Z,98850.16
2018-12-07T19:42:36.153Z,98838.23
2018-12-07T19:45:04.134Z,98836.99
2018-12-07T19:47:31.619Z,98830.99
2018-12-07T19:49:59.418Z,98832.73
2018-12-07T19:52:27.117Z,98830.01
2018-12-07T19:54:55.648Z,98828.14
2018-12-07T19:57:23.277Z,98840.46
2018-12-07T19:59:51.728Z,98841.75
2018-12-07T20:02:19.774Z,98830.92
2018-12-07T20:04:47.470Z,98839.23
2018-12-07T20:07:15.010Z,98827.94
2018-12-07T20:09:42.794Z,98816.64
2018-12-07T20:12:10.590Z,98828.95
2018-12-07T20:14:38.385Z,98830.21
2018-12-07T20:17:06.153Z,98813.52
2018-12-07T20:19:33.584Z,98825.38
2018-12-07T20:22:01.016Z,98817.00
2018-12-07T20:24:28.441Z,98821.63
2018-12-07T20:26:55.940Z,98801.72
2018-12-07T20:29:23.443Z,98799.14
2018-12-07T20:31:50.974Z,98809.81
2018-12-07T20:34:18.524Z,98807.92
2018-12-07T20:36:46.230Z,98800.64
2018-12-07T20:39:13.804Z,98791.81
2018-12-07T20:41:41.257Z,98793.47
2018-12-07T20:44:08.753Z,98783.05
2018-12-07T20:46:36.308Z,98786.59
2018-12-07T20:49:04.298Z,98772.33
2018-12-07T20:51:31.873Z,98767.63
2018-12-07T20:53:59.570Z,98756.59
2018-12-07T20:56:27.298Z,98765.89
2018-12-07T20:58:55.007Z,98758.84
2018-12-07T21:01:22.666Z,98740.13
2018-12-07T21:03:53.949Z,98740.00
2018-12-07T21:07:27.788Z,98741.98
2018-12-07T21:09:57.895Z,98737.09
2018-12-07T21:12:25.368Z,98737.53
2018-12-07T21:14:52.831Z,98734.11
2018-12-07T21:17:22.942Z,98742.72
2018-12-07T21:19:51.351Z,98738.48
2018-12-07T21:22:19.262Z,98731.13
2018-12-07T21:24:47.252Z,98729.09
2018-12-07T21:27:14.749Z,98729.09
2018-12-07T21:29:42.425Z,98723.52
2018-12-07T21:32:09.907Z,98735.53
2018-12-07T21:34:37.537Z,98735.55
2018-12-07T21:37:05.185Z,98735.42
2018-12-07T21:39:32.792Z,98731.50
2018-12-07T21:42:00.545Z,98739.27
2018-12-07T21:44:28.136Z,98723.52
2018-12-07T21:46:55.676Z,98723.58
2018-12-07T21:49:23.340Z,98712.22
2018-12-07T21:51:50.815Z,98712.58
2018-12-07T21:54:18.474Z,98712.34
2018-12-07T21:56:46.012Z,98704.85
2018-12-07T22:01:47.240Z,98705.41
2018-12-07T22:04:14.987Z,98703.31
2018-12-07T22:06:42.856Z,98705.60
2018-12-07T22:09:10.667Z,98701.29
2018-12-07T22:11:38.340Z,98703.91
2018-12-07T22:14:05.755Z,98691.51
2018-12-07T22:16:33.260Z,98691.95
2018-12-07T22:19:01.118Z,98685.05
2018-12-07T22:21:28.540Z,98682.86
2018-12-07T22:23:56.242Z,98688.03
2018-12-07T22:26:23.986Z,98686.30
2018-12-07T22:28:51.840Z,98678.11
2018-12-07T22:31:19.589Z,98677.28
2018-12-07T22:33:47.273Z,98676.84
2018-12-07T22:36:14.860Z,98673.44
2018-12-07T22:38:42.340Z,98683.75
2018-12-07T22:41:09.851Z,98682.05
2018-12-07T22:43:37.313Z,98689.42
2018-12-07T22:46:04.799Z,98686.80
2018-12-07T22:48:32.457Z,98676.02
2018-12-07T22:50:59.934Z,98677.31
2018-12-07T22:53:27.476Z,98682.09
2018-12-07T22:55:54.936Z,98689.01
2018-12-07T22:58:22.387Z,98697.21
2018-12-07T23:00:49.844Z,98689.87
2018-12-07T23:03:17.304Z,98689.87
2018-12-07T23:05:44.728Z,98701.94
2018-12-07T23:08:12.222Z,98702.38
2018-12-07T23:10:39.644Z,98708.41
2018-12-07T23:13:07.072Z,98708.40
2018-12-07T23:15:34.506Z,98702.77
2018-12-07T23:18:01.948Z,98696.75
2018-12-07T23:20:29.367Z,98686.41
2018-12-07T23:22:56.864Z,98694.16
2018-12-07T23:25:24.320Z,98691.13
2018-12-07T23:27:51.739Z,98700.64
2018-12-07T23:30:19.532Z,98697.64
2018-12-07T23:32:46.953Z,98694.19
2018-12-07T23:35:14.382Z,98693.77
2018-12-07T23:37:41.797Z,98705.86
2018-12-07T23:40:09.264Z,98700.67
2018-12-07T23:42:36.693Z,98699.39
2018-12-07T23:45:04.288Z,98712.30
2018-12-07T23:47:31.786Z,98706.27
2018-12-07T23:49:59.204Z,98707.98
2018-12-07T23:52:26.761Z,98712.74
2018-12-07T23:54:54.215Z,98708.02
2018-12-07T23:57:21.638Z,98712.31
2018-12-07T23:59:49.058Z,98710.61
